createdAt,value
2018-12-26T00:00:00.249Z,76.30
2018-12-26T00:09:52.720Z,75.90
2018-12-26T00:12:20.695Z,82.30
2018-12-26T00:14:49.583Z,74.80
2018-12-26T00:17:18.380Z,74.90
2018-12-26T00:19:46.032Z,82.60
2018-12-26T00:22:14.522Z,84.10
2018-12-26T00:24:42.619Z,81.30
2018-12-26T00:27:11.057Z,82.00
2018-12-26T00:32:06.725Z,87.90
2018-12-26T00:34:34.366Z,82.50
2018-12-26T00:37:02.738Z,84.10
2018-12-26T00:44:26.041Z,82.90
2018-12-26T00:46:54.313Z,90.20
2018-12-26T00:49:23.131Z,88.50
2018-12-26T00:56:47.548Z,87.30
2018-12-26T00:59:15.266Z,83.90
2018-12-26T01:01:43.836Z,91.10
2018-12-26T01:04:12.151Z,90.50
2018-12-26T01:06:40.872Z,84.10
2018-12-26T01:09:08.817Z,84.80
2018-12-26T01:14:04.886Z,83.80
2018-12-26T01:16:33.448Z,89.00
2018-12-26T01:19:01.825Z,90.40
2018-12-26T01:23:57.473Z,82.50
2018-12-26T01:28:53.287Z,90.10
2018-12-26T01:33:49.770Z,82.30
2018-12-26T01:36:18.238Z,82.20
2018-12-26T01:38:45.526Z,82.20
2018-12-26T01:41:12.840Z,90.30
2018-12-26T01:46:08.699Z,84.30
2018-12-26T01:48:37.150Z,90.10
2018-12-26T01:53:32.895Z,80.80
2018-12-26T01:56:01.584Z,83.70
2018-12-26T01:58:29.669Z,87.10
2018-12-26T02:01:02.748Z,80.70
2018-12-26T02:03:31.243Z,87.20
2018-12-26T02:08:27.533Z,86.70
2018-12-26T02:10:56.024Z,78.90
2018-12-26T02:13:23.734Z,79.30
2018-12-26T02:15:52.197Z,81.60
2018-12-26T02:18:20.204Z,88.80
2018-12-26T02:20:48.332Z,87.60
2018-12-26T02:23:17.069Z,86.30
2018-12-26T02:25:45.142Z,80.70
2018-12-26T02:28:13.606Z,89.20
2018-12-26T02:33:09.835Z,82.30
2018-12-26T02:35:38.619Z,90.60
2018-12-26T02:38:06.301Z,81.60
2018-12-26T02:40:33.644Z,81.70
2018-12-26T02:45:30.425Z,90.20
2018-12-26T02:47:59.184Z,88.20
2018-12-26T02:50:27.007Z,88.90
2018-12-26T02:52:55.328Z,81.30
2018-12-26T02:55:23.006Z,81.50
2018-12-26T02:57:51.069Z,84.30
2018-12-26T03:00:19.249Z,81.90
2018-12-26T03:02:47.205Z,80.50
2018-12-26T03:05:15.199Z,81.50
2018-12-26T03:12:40.026Z,86.70
2018-12-26T03:17:36.175Z,80.10
2018-12-26T03:20:03.604Z,79.80
2018-12-26T03:22:31.811Z,80.90
2018-12-26T03:24:59.899Z,80.70
2018-12-26T03:27:27.719Z,82.00
2018-12-26T03:29:55.806Z,82.20
2018-12-26T03:32:23.865Z,80.40
2018-12-26T03:34:52.245Z,82.00
2018-12-26T03:37:20.663Z,90.40
2018-12-26T03:39:48.420Z,84.40
2018-12-26T03:44:45.775Z,90.80
2018-12-26T03:54:39.953Z,85.80
2018-12-26T03:57:07.956Z,85.80
2018-12-26T03:59:37.900Z,90.60
2018-12-26T04:02:05.999Z,91.30
2018-12-26T04:04:34.656Z,85.10
2018-12-26T04:07:03.117Z,91.70
2018-12-26T04:09:31.679Z,88.10
2018-12-26T04:11:59.399Z,88.40
2018-12-26T04:14:27.788Z,92.40
2018-12-26T04:21:52.377Z,92.50
2018-12-26T04:24:22.197Z,86.70
2018-12-26T04:26:49.888Z,88.80
2018-12-26T04:29:18.034Z,92.50
2018-12-26T04:31:46.014Z,92.20
2018-12-26T04:34:14.304Z,90.40
2018-12-26T04:39:10.343Z,84.00
2018-12-26T04:41:38.298Z,85.30
2018-12-26T04:44:06.875Z,91.20
2018-12-26T04:46:34.969Z,82.40
2018-12-26T04:49:02.624Z,91.40
2018-12-26T04:53:58.162Z,84.50
2018-12-26T04:56:26.490Z,91.00
2018-12-26T05:03:50.661Z,84.70
2018-12-26T05:06:18.815Z,83.60
2018-12-26T05:08:46.566Z,85.70
2018-12-26T05:13:42.639Z,90.70
2018-12-26T05:16:11.020Z,88.00
2018-12-26T05:18:39.775Z,84.70
2018-12-26T05:21:07.429Z,82.50
2018-12-26T05:23:35.515Z,90.80
2018-12-26T05:26:03.148Z,83.30
2018-12-26T05:28:31.248Z,87.10
2018-12-26T05:30:59.547Z,83.80
2018-12-26T05:33:27.274Z,82.40
2018-12-26T05:35:55.739Z,78.30
2018-12-26T05:38:23.776Z,78.10
2018-12-26T05:40:51.538Z,78.10
2018-12-26T05:43:20.007Z,78.20
2018-12-26T05:45:48.067Z,78.80
2018-12-26T05:48:16.051Z,78.70
2018-12-26T05:50:44.010Z,78.50
2018-12-26T05:53:11.967Z,78.80
2018-12-26T05:55:39.829Z,78.30
2018-12-26T05:58:07.499Z,78.20
2018-12-26T06:00:35.669Z,78.60
2018-12-26T06:03:04.398Z,78.40
2018-12-26T06:05:32.597Z,79.10
2018-12-26T06:08:00.973Z,78.50
2018-12-26T06:10:29.131Z,78.60
2018-12-26T06:12:57.887Z,78.90
2018-12-26T06:15:26.230Z,78.40
2018-12-26T06:17:54.095Z,77.90
2018-12-26T06:20:22.011Z,78.30
2018-12-26T06:22:49.733Z,78.50
2018-12-26T06:25:17.749Z,78.60
2018-12-26T06:27:51.463Z,78.40
2018-12-26T06:30:15.930Z,78.60
2018-12-26T06:32:44.328Z,78.80
2018-12-26T06:35:12.438Z,79.40
2018-12-26T06:37:40.881Z,79.70
2018-12-26T06:40:09.477Z,79.20
2018-12-26T06:42:37.946Z,79.00
2018-12-26T06:45:05.887Z,78.40
2018-12-26T06:47:33.896Z,79.10
2018-12-26T06:50:02.402Z,79.00
2018-12-26T06:52:31.248Z,79.80
2018-12-26T06:54:59.346Z,79.50
2018-12-26T06:57:27.964Z,79.60
2018-12-26T06:59:56.072Z,79.50
2018-12-26T07:02:24.507Z,80.30
2018-12-26T07:04:52.622Z,79.60
2018-12-26T07:07:20.717Z,80.00
2018-12-26T07:09:48.758Z,80.60
2018-12-26T07:12:16.417Z,80.00
2018-12-26T07:14:45.077Z,80.20
2018-12-26T07:17:13.033Z,79.70
2018-12-26T07:19:41.462Z,80.20
2018-12-26T07:22:09.702Z,80.40
2018-12-26T07:24:38.496Z,80.20
2018-12-26T07:27:06.870Z,79.70
2018-12-26T07:29:35.308Z,79.60
2018-12-26T07:32:03.566Z,80.10
2018-12-26T07:34:32.116Z,82.00
2018-12-26T07:37:00.238Z,80.20
2018-12-26T07:39:28.942Z,80.90
2018-12-26T07:41:57.650Z,80.60
2018-12-26T07:44:27.136Z,80.20
2018-12-26T07:46:55.388Z,80.80
2018-12-26T07:49:23.817Z,80.90
2018-12-26T07:54:20.806Z,79.80
2018-12-26T07:56:49.430Z,79.80
2018-12-26T07:59:17.503Z,79.60
2018-12-26T08:01:45.769Z,79.90
2018-12-26T08:04:14.155Z,80.20
2018-12-26T08:06:42.516Z,79.30
2018-12-26T08:09:10.500Z,78.40
2018-12-26T08:11:38.963Z,78.40
2018-12-26T08:14:06.961Z,78.70
2018-12-26T08:16:34.920Z,78.80
2018-12-26T08:19:03.292Z,78.40
2018-12-26T08:21:31.642Z,79.00
2018-12-26T08:23:59.785Z,79.40
2018-12-26T08:26:27.532Z,79.50
2018-12-26T08:28:56.232Z,80.00
2018-12-26T08:31:24.605Z,79.40
2018-12-26T08:33:52.743Z,79.50
2018-12-26T08:36:21.561Z,79.20
2018-12-26T08:38:49.955Z,79.00
2018-12-26T08:41:18.680Z,79.50
2018-12-26T08:43:47.514Z,79.10
2018-12-26T08:46:15.516Z,78.60
2018-12-26T08:48:43.535Z,77.80
2018-12-26T08:53:40.242Z,78.80
2018-12-26T08:56:08.083Z,78.80
2018-12-26T08:58:36.450Z,78.10
2018-12-26T09:01:04.435Z,78.10
2018-12-26T09:03:32.687Z,77.60
2018-12-26T09:06:01.014Z,77.10
2018-12-26T09:08:29.368Z,77.10
2018-12-26T09:10:58.071Z,77.80
2018-12-26T09:13:26.543Z,77.50
2018-12-26T09:15:55.163Z,77.40
2018-12-26T09:18:23.203Z,76.90
2018-12-26T09:20:52.165Z,78.00
2018-12-26T09:23:20.130Z,82.40
2018-12-26T09:26:01.477Z,78.70
2018-12-26T09:28:30.136Z,78.20
2018-12-26T09:30:58.722Z,77.60
2018-12-26T09:35:56.141Z,77.30
2018-12-26T09:38:25.324Z,77.00
2018-12-26T09:40:52.928Z,77.10
2018-12-26T09:43:21.296Z,76.60
2018-12-26T09:45:48.975Z,76.60
2018-12-26T09:48:17.094Z,77.00
2018-12-26T09:50:46.860Z,77.00
2018-12-26T09:53:15.909Z,76.60
2018-12-26T09:55:44.636Z,76.60
2018-12-26T09:58:12.722Z,76.80
2018-12-26T10:00:41.030Z,77.20
2018-12-26T10:03:08.896Z,77.10
2018-12-26T10:05:36.843Z,77.10
2018-12-26T10:08:05.624Z,77.00
2018-12-26T10:10:33.713Z,76.70
2018-12-26T10:13:02.116Z,76.80
2018-12-26T10:15:30.654Z,77.00
2018-12-26T10:17:58.256Z,77.10
2018-12-26T10:20:26.328Z,76.70
2018-12-26T10:22:54.359Z,77.20
2018-12-26T10:25:22.799Z,77.10
2018-12-26T10:30:18.649Z,76.80
2018-12-26T10:32:46.872Z,76.50
2018-12-26T10:35:14.937Z,76.10
2018-12-26T10:37:44.785Z,76.00
2018-12-26T10:40:12.885Z,75.40
2018-12-26T10:42:41.179Z,75.80
2018-12-26T10:45:09.152Z,76.30
2018-12-26T10:47:37.426Z,75.60
2018-12-26T10:50:07.649Z,76.50
2018-12-26T10:52:35.337Z,75.90
2018-12-26T10:55:03.428Z,74.90
2018-12-26T10:57:31.506Z,75.10
2018-12-26T10:59:59.742Z,75.60
2018-12-26T11:02:28.582Z,76.20
2018-12-26T11:04:56.982Z,76.00
2018-12-26T11:07:24.994Z,75.60
2018-12-26T11:09:53.014Z,75.50
2018-12-26T11:12:21.260Z,74.70
2018-12-26T11:14:49.389Z,74.60
2018-12-26T11:17:17.180Z,74.50
2018-12-26T11:19:45.455Z,75.70
2018-12-26T11:22:13.628Z,75.10
2018-12-26T11:24:42.124Z,74.30
2018-12-26T11:27:10.533Z,74.80
2018-12-26T11:29:38.363Z,74.20
2018-12-26T11:32:06.561Z,75.50
2018-12-26T11:34:34.607Z,74.90
2018-12-26T11:37:04.728Z,74.30
2018-12-26T11:39:33.876Z,74.80
2018-12-26T11:42:01.574Z,75.40
2018-12-26T11:44:30.360Z,75.00
2018-12-26T11:46:58.033Z,75.40
2018-12-26T11:49:26.247Z,76.00
2018-12-26T11:51:54.718Z,74.50
2018-12-26T11:54:24.324Z,74.50
2018-12-26T11:56:52.499Z,74.50
2018-12-26T11:59:27.188Z,74.60
2018-12-26T12:01:51.179Z,74.50
2018-12-26T12:06:47.340Z,74.50
2018-12-26T12:09:15.399Z,74.60
2018-12-26T12:14:11.976Z,74.20
2018-12-26T12:16:40.467Z,74.50
2018-12-26T12:19:08.935Z,74.40
2018-12-26T12:21:37.001Z,75.00
2018-12-26T12:24:05.475Z,74.40
2018-12-26T12:26:33.490Z,75.60
2018-12-26T12:29:01.552Z,76.00
2018-12-26T12:31:29.987Z,75.80
2018-12-26T12:33:58.455Z,75.30
2018-12-26T12:36:27.262Z,75.80
2018-12-26T12:38:54.988Z,75.50
2018-12-26T12:41:23.528Z,75.70
2018-12-26T12:43:51.966Z,75.50
2018-12-26T12:46:20.208Z,75.40
2018-12-26T12:48:48.351Z,76.10
2018-12-26T12:53:44.942Z,76.20
2018-12-26T12:56:14.850Z,76.00
2018-12-26T12:58:43.199Z,76.20
2018-12-26T13:03:46.376Z,75.50
2018-12-26T13:06:08.767Z,75.80
2018-12-26T13:08:36.447Z,76.60
2018-12-26T13:11:05.014Z,76.80
2018-12-26T13:13:32.892Z,76.90
2018-12-26T13:16:01.461Z,77.10
2018-12-26T13:18:30.095Z,77.00
2018-12-26T13:20:58.211Z,77.00
2018-12-26T13:23:27.009Z,76.30
2018-12-26T13:25:55.283Z,76.50
2018-12-26T13:28:23.840Z,76.10
2018-12-26T13:30:51.855Z,75.90
2018-12-26T13:33:20.200Z,76.30
2018-12-26T13:35:48.653Z,76.50
2018-12-26T13:38:17.059Z,75.80
2018-12-26T13:40:45.115Z,76.50
2018-12-26T13:43:13.622Z,77.00
2018-12-26T13:45:41.282Z,77.30
2018-12-26T13:48:09.392Z,77.90
2018-12-26T13:50:38.345Z,77.30
2018-12-26T13:53:06.132Z,77.50
2018-12-26T13:55:34.900Z,77.40
2018-12-26T13:58:03.399Z,77.30
2018-12-26T14:00:31.862Z,77.20
2018-12-26T14:03:00.473Z,76.70
2018-12-26T14:05:29.346Z,76.70
2018-12-26T14:07:57.577Z,76.50
2018-12-26T14:10:26.272Z,76.20
2018-12-26T14:12:54.485Z,76.40
2018-12-26T14:15:22.964Z,76.10
2018-12-26T14:17:51.038Z,76.10
2018-12-26T14:20:18.741Z,76.50
2018-12-26T14:22:47.192Z,77.10
2018-12-26T14:25:15.945Z,76.70
2018-12-26T14:27:45.179Z,77.30
2018-12-26T14:30:13.552Z,77.40
2018-12-26T14:32:41.791Z,77.70
2018-12-26T14:35:10.668Z,77.10
2018-12-26T14:37:38.811Z,77.30
2018-12-26T14:40:06.855Z,77.70
2018-12-26T14:42:34.819Z,77.60
2018-12-26T14:45:03.213Z,78.10
2018-12-26T14:47:31.699Z,77.50
2018-12-26T14:50:00.371Z,78.10
2018-12-26T14:52:28.084Z,77.70
2018-12-26T14:54:56.611Z,78.00
2018-12-26T14:57:24.617Z,77.80
2018-12-26T14:59:53.067Z,77.80
2018-12-26T15:02:21.171Z,77.90
2018-12-26T15:04:49.734Z,77.60
2018-12-26T15:07:18.682Z,77.90
2018-12-26T15:09:46.871Z,78.40
2018-12-26T15:12:14.965Z,78.60
2018-12-26T15:14:43.804Z,78.60
2018-12-26T15:17:12.383Z,79.00
2018-12-26T15:19:40.858Z,79.00
2018-12-26T15:22:08.859Z,79.30
2018-12-26T15:24:37.384Z,79.30
2018-12-26T15:27:05.641Z,78.80
2018-12-26T15:29:34.343Z,78.40
2018-12-26T15:34:30.433Z,78.30
2018-12-26T15:36:58.554Z,78.20
2018-12-26T15:39:27.275Z,78.20
2018-12-26T15:41:56.029Z,77.70
2018-12-26T15:46:52.477Z,78.10
2018-12-26T15:49:20.546Z,78.00
2018-12-26T15:51:48.691Z,78.50
2018-12-26T15:54:16.528Z,78.60
2018-12-26T15:56:45.366Z,78.30
2018-12-26T16:04:28.376Z,78.50
2018-12-26T16:06:56.932Z,78.80
2018-12-26T16:09:25.712Z,78.10
2018-12-26T16:11:54.551Z,78.10
2018-12-26T16:14:22.982Z,78.10
2018-12-26T16:16:51.498Z,77.90
2018-12-26T16:19:19.791Z,77.80
2018-12-26T16:21:48.146Z,78.00
2018-12-26T16:24:16.526Z,78.50
2018-12-26T16:26:44.607Z,78.50
2018-12-26T16:29:13.239Z,78.30
2018-12-26T16:31:41.747Z,78.20
2018-12-26T16:34:10.255Z,78.10
2018-12-26T16:36:38.625Z,78.60
2018-12-26T16:39:06.710Z,78.20
2018-12-26T16:41:35.300Z,78.20
2018-12-26T16:44:04.972Z,78.40
2018-12-26T16:46:33.358Z,78.40
2018-12-26T16:49:01.442Z,78.60
2018-12-26T16:51:29.919Z,78.40
2018-12-26T16:53:58.361Z,79.20
2018-12-26T16:56:25.946Z,79.10
2018-12-26T16:58:53.931Z,79.10
2018-12-26T17:01:21.996Z,79.00
2018-12-26T17:03:50.096Z,78.70
2018-12-26T17:06:19.080Z,78.60
2018-12-26T17:08:47.542Z,78.40
2018-12-26T17:11:17.506Z,77.80
2018-12-26T17:13:45.729Z,77.70
2018-12-26T17:16:15.978Z,78.10
2018-12-26T17:18:44.063Z,78.10
2018-12-26T17:21:12.112Z,78.50
2018-12-26T17:23:40.925Z,78.10
2018-12-26T17:26:09.162Z,78.50
2018-12-26T17:28:37.288Z,78.40
2018-12-26T17:31:05.495Z,77.90
2018-12-26T17:33:33.211Z,77.90
2018-12-26T17:36:01.419Z,77.90
2018-12-26T17:38:29.444Z,78.10
2018-12-26T17:40:58.321Z,78.30
2018-12-26T17:43:26.691Z,78.40
2018-12-26T17:45:55.061Z,78.60
2018-12-26T17:48:23.153Z,78.10
2018-12-26T17:50:51.416Z,78.80
2018-12-26T17:53:26.591Z,78.70
2018-12-26T17:56:19.656Z,79.20
2018-12-26T17:58:56.254Z,79.10
2018-12-26T18:01:29.409Z,79.10
2018-12-26T18:03:57.642Z,78.90
2018-12-26T18:06:26.029Z,79.10
2018-12-26T18:08:54.843Z,79.10
2018-12-26T18:11:23.829Z,78.80
2018-12-26T18:13:51.900Z,79.40
2018-12-26T18:16:20.044Z,79.60
2018-12-26T18:18:48.171Z,80.20
2018-12-26T18:21:16.634Z,80.30
2018-12-26T18:23:45.054Z,80.30
2018-12-26T18:26:13.536Z,80.30
2018-12-26T18:28:42.409Z,81.20
2018-12-26T18:33:38.283Z,81.60
2018-12-26T18:36:07.008Z,81.10
2018-12-26T18:38:34.596Z,80.80
2018-12-26T18:41:03.065Z,81.10
2018-12-26T18:43:31.546Z,81.00
2018-12-26T18:45:59.707Z,81.10
2018-12-26T18:48:28.392Z,80.80
2018-12-26T18:50:56.471Z,80.80
2018-12-26T18:53:30.081Z,80.90
2018-12-26T18:56:07.598Z,82.90
2018-12-26T19:01:06.201Z,80.60
2018-12-26T19:03:35.874Z,80.30
2018-12-26T19:08:32.250Z,80.50
2018-12-26T19:11:07.192Z,80.80
2018-12-26T19:13:36.325Z,80.50
2018-12-26T19:16:07.326Z,80.40
2018-12-26T19:21:06.217Z,80.30
2018-12-26T19:23:35.564Z,80.10
2018-12-26T19:26:05.487Z,83.40
2018-12-26T19:28:36.239Z,81.70
2018-12-26T19:33:35.929Z,81.60
2018-12-26T19:36:04.429Z,81.50
2018-12-26T19:38:33.125Z,80.40
2018-12-26T19:41:04.906Z,80.60
2018-12-26T19:43:33.924Z,80.60
2018-12-26T19:46:02.079Z,80.80
2018-12-26T19:48:31.859Z,81.10
2018-12-26T19:51:02.898Z,81.30
2018-12-26T19:53:33.027Z,81.60
2018-12-26T19:56:00.948Z,81.00
2018-12-26T19:58:29.336Z,80.40
2018-12-26T20:00:57.982Z,80.30
2018-12-26T20:03:26.819Z,80.50
2018-12-26T20:05:55.392Z,81.10
2018-12-26T20:08:23.576Z,80.30
2018-12-26T20:10:52.124Z,80.10
2018-12-26T20:13:20.735Z,80.30
2018-12-26T20:15:49.092Z,81.50
2018-12-26T20:18:17.188Z,82.50
2018-12-26T20:20:45.762Z,80.50
2018-12-26T20:23:13.929Z,81.00
2018-12-26T20:25:42.035Z,80.50
2018-12-26T20:28:10.184Z,80.10
2018-12-26T20:30:38.244Z,80.20
2018-12-26T20:33:07.049Z,81.00
2018-12-26T20:35:35.853Z,80.70
2018-12-26T20:38:04.286Z,81.30
2018-12-26T20:40:33.009Z,81.50
2018-12-26T20:43:02.597Z,81.60
2018-12-26T20:45:31.312Z,81.60
2018-12-26T20:47:59.074Z,81.20
2018-12-26T20:50:27.365Z,80.60
2018-12-26T20:52:55.760Z,80.50
2018-12-26T20:55:23.910Z,80.40
2018-12-26T20:57:51.809Z,80.60
2018-12-26T21:00:21.598Z,80.80
2018-12-26T21:05:18.340Z,81.00
2018-12-26T21:07:45.706Z,80.40
2018-12-26T21:10:14.160Z,80.70
2018-12-26T21:12:42.782Z,81.10
2018-12-26T21:15:11.634Z,81.30
2018-12-26T21:17:40.351Z,81.60
2018-12-26T21:20:08.947Z,81.60
2018-12-26T21:22:37.171Z,81.60
2018-12-26T21:25:06.305Z,80.90
2018-12-26T21:27:33.932Z,80.80
2018-12-26T21:30:03.192Z,81.20
2018-12-26T21:32:31.834Z,81.10
2018-12-26T21:35:00.322Z,81.20
2018-12-26T21:37:28.679Z,81.50
2018-12-26T21:39:59.862Z,81.30
2018-12-26T21:42:28.784Z,80.60
2018-12-26T21:44:57.110Z,81.50
2018-12-26T21:47:25.395Z,81.30
2018-12-26T21:49:53.101Z,80.80
2018-12-26T21:52:21.342Z,80.80
2018-12-26T21:54:49.569Z,81.00
2018-12-26T21:57:17.378Z,81.40
2018-12-26T21:59:45.511Z,81.50
2018-12-26T22:02:13.713Z,80.50
2018-12-26T22:04:41.495Z,80.50
2018-12-26T22:07:31.519Z,80.80
2018-12-26T22:10:07.165Z,81.30
2018-12-26T22:15:11.603Z,81.30
2018-12-26T22:17:44.268Z,81.50
2018-12-26T22:20:22.283Z,80.80
2018-12-26T22:22:56.200Z,80.30
2018-12-26T22:25:34.153Z,79.80
2018-12-26T22:28:02.287Z,79.00
2018-12-26T22:30:33.774Z,79.60
2018-12-26T22:33:07.009Z,80.10
2018-12-26T22:35:39.037Z,81.20
2018-12-26T22:38:15.195Z,81.50
2018-12-26T22:40:48.139Z,81.50
2018-12-26T22:43:16.073Z,81.60
2018-12-26T22:45:48.898Z,81.50
2018-12-26T22:50:45.741Z,81.50
2018-12-26T22:53:16.643Z,81.40
2018-12-26T22:55:46.580Z,81.40
2018-12-26T22:58:15.024Z,81.60
2018-12-26T23:00:44.837Z,82.00
2018-12-26T23:03:13.907Z,82.00
2018-12-26T23:05:42.406Z,80.30
2018-12-26T23:08:11.820Z,81.40
2018-12-26T23:10:39.837Z,82.00
2018-12-26T23:13:08.167Z,82.00
2018-12-26T23:15:36.955Z,82.10
2018-12-26T23:18:05.425Z,82.00
2018-12-26T23:20:34.944Z,82.50
2018-12-26T23:23:03.027Z,82.60
2018-12-26T23:25:31.531Z,83.20
2018-12-26T23:28:00.899Z,83.30
2018-12-26T23:30:29.090Z,82.90
2018-12-26T23:33:00.963Z,82.50
2018-12-26T23:37:59.588Z,82.40
2018-12-26T23:40:27.519Z,82.30
2018-12-26T23:42:56.090Z,81.40
2018-12-26T23:45:24.288Z,82.00
2018-12-26T23:47:52.252Z,82.50
2018-12-26T23:50:20.583Z,83.00
2018-12-26T23:52:48.408Z,82.80
2018-12-26T23:55:17.151Z,82.80
2018-12-26T23:57:45.653Z,82.50
